Time;durP1;ratioP1;P1;durP2;ratioP2;P2;SDS_P1;SDS_P2;PMS_P1;PMS_P2;Temp;Humidity;BMP_temperature;BMP_pressure;BME280_temperature;BME280_humidity;BME280_pressure;Samples;Min_cycle;Max_cycle;Signal;HPM_P1;HPM_P2
2020/12/13 00:00:34;;;;;;;1.35;0.80;;;20.80;47.60;;;;;;5046576;28;20072;-45
2020/12/13 00:03:00;;;;;;;1.40;0.90;;;20.80;47.60;;;;;;5034880;28;20022;-45
2020/12/13 00:05:25;;;;;;;1.15;0.77;;;20.80;47.60;;;;;;5033813;28;20065;-47
2020/12/13 00:07:52;;;;;;;1.55;1.10;;;20.80;47.60;;;;;;5034772;28;20080;-45
2020/12/13 00:10:18;;;;;;;1.17;1.00;;;20.80;47.50;;;;;;5034155;28;20056;-45
2020/12/13 00:12:44;;;;;;;1.42;0.85;;;20.80;47.50;;;;;;5033851;28;20029;-45
2020/12/13 00:15:10;;;;;;;1.10;0.90;;;20.80;47.50;;;;;;5033436;28;20492;-45
2020/12/13 00:17:35;;;;;;;1.77;0.95;;;20.80;47.50;;;;;;5033500;28;20108;-46
2020/12/13 00:20:02;;;;;;;1.52;0.80;;;20.80;47.50;;;;;;5034151;28;20056;-45
2020/12/13 00:22:27;;;;;;;1.45;0.90;;;20.80;47.50;;;;;;5032700;28;20053;-45
2020/12/13 00:24:53;;;;;;;1.20;0.82;;;20.80;47.50;;;;;;5034312;28;20094;-45
2020/12/13 00:27:19;;;;;;;1.95;1.00;;;20.80;47.50;;;;;;5033685;28;20025;-54
2020/12/13 00:29:45;;;;;;;1.70;1.00;;;20.80;47.40;;;;;;5033295;28;20111;-45
2020/12/13 00:32:11;;;;;;;1.98;0.65;;;20.80;47.40;;;;;;5033985;28;20421;-46
2020/12/13 00:34:36;;;;;;;1.15;0.80;;;20.80;47.40;;;;;;5033450;28;20045;-45
2020/12/13 00:37:02;;;;;;;1.50;0.93;;;20.80;47.40;;;;;;5034123;28;20026;-45
2020/12/13 00:39:28;;;;;;;1.10;0.90;;;20.80;47.40;;;;;;5033310;28;20037;-46
2020/12/13 00:41:55;;;;;;;1.45;1.05;;;20.80;47.40;;;;;;5034254;28;20026;-45
2020/12/13 00:44:21;;;;;;;1.27;0.95;;;20.70;47.30;;;;;;5033631;28;20034;-53
2020/12/13 00:46:48;;;;;;;1.40;1.00;;;20.70;47.30;;;;;;5032993;28;20040;-45
2020/12/13 00:49:14;;;;;;;1.30;0.93;;;20.80;47.40;;;;;;5033621;28;20125;-45
2020/12/13 00:51:40;;;;;;;1.42;1.08;;;20.70;47.30;;;;;;5032904;28;20053;-46
2020/12/13 00:54:05;;;;;;;1.15;0.80;;;20.70;47.20;;;;;;5033860;28;20025;-45
2020/12/13 00:56:31;;;;;;;1.30;0.90;;;20.80;47.30;;;;;;5032857;28;20021;-46
2020/12/13 00:58:57;;;;;;;1.75;0.90;;;20.70;47.20;;;;;;5033448;28;20033;-45
2020/12/13 01:01:23;;;;;;;1.85;0.90;;;20.70;47.20;;;;;;5033456;28;20029;-55
2020/12/13 01:03:49;;;;;;;1.67;0.80;;;20.80;47.30;;;;;;5033940;28;20037;-45
2020/12/13 01:06:25;;;;;;;2.33;1.00;;;20.70;47.20;;;;;;5032941;28;20034;-45
2020/12/13 01:08:52;;;;;;;1.67;0.88;;;20.70;47.20;;;;;;5033642;28;20034;-45
2020/12/13 01:11:30;;;;;;;1.58;0.95;;;20.70;47.20;;;;;;5032371;28;20410;-47
2020/12/13 01:13:56;;;;;;;1.20;0.80;;;20.70;47.20;;;;;;5032923;28;20479;-45
2020/12/13 01:16:25;;;;;;;0.90;0.77;;;20.70;47.10;;;;;;5031546;28;20025;-55
2020/12/13 01:18:51;;;;;;;1.23;0.80;;;20.70;47.10;;;;;;5031430;28;20033;-45
2020/12/13 01:21:20;;;;;;;1.33;0.70;;;20.70;47.10;;;;;;5032966;28;20138;-45
2020/12/13 01:23:46;;;;;;;0.85;0.70;;;20.80;47.10;;;;;;5032100;28;20612;-45
2020/12/13 01:26:16;;;;;;;2.35;0.90;;;20.70;47.00;;;;;;5033067;28;20112;-46
2020/12/13 01:28:42;;;;;;;1.13;0.70;;;20.80;47.10;;;;;;5032106;28;20045;-45
2020/12/13 01:31:12;;;;;;;1.30;0.77;;;20.70;47.10;;;;;;5032401;28;20052;-46
2020/12/13 01:33:38;;;;;;;1.00;0.77;;;20.70;47.00;;;;;;5032550;28;20565;-47
2020/12/13 01:36:03;;;;;;;0.88;0.77;;;20.70;47.00;;;;;;5032641;28;20118;-50
2020/12/13 01:38:29;;;;;;;1.00;0.88;;;20.70;47.10;;;;;;5032179;28;20021;-46
2020/12/13 01:40:59;;;;;;;0.88;0.80;;;20.70;47.10;;;;;;5032794;28;20029;-45
2020/12/13 01:43:27;;;;;;;0.80;0.80;;;20.70;47.00;;;;;;5031627;28;20025;-55
2020/12/13 01:45:53;;;;;;;1.23;0.80;;;20.70;47.00;;;;;;5032800;28;20028;-48
2020/12/13 01:48:19;;;;;;;1.45;0.82;;;20.70;47.00;;;;;;5032354;28;20558;-46
2020/12/13 01:51:11;;;;;;;1.95;1.02;;;20.70;47.00;;;;;;5032032;28;20116;-48
2020/12/13 01:53:34;;;;;;;1.63;0.80;;;20.70;47.00;;;;;;5031020;28;20049;-47
2020/12/13 01:56:02;;;;;;;1.70;0.90;;;20.70;47.00;;;;;;5032533;28;20482;-45
2020/12/13 01:58:36;;;;;;;0.98;0.75;;;20.70;47.00;;;;;;5030833;28;20390;-46
2020/12/13 02:01:07;;;;;;;1.40;0.88;;;20.70;47.00;;;;;;5033330;28;20037;-45
2020/12/13 02:03:37;;;;;;;0.73;0.60;;;20.70;47.00;;;;;;5032270;28;20034;-45
2020/12/13 02:06:11;;;;;;;1.02;0.68;;;20.70;47.00;;;;;;5032976;28;20057;-46
2020/12/13 02:08:39;;;;;;;1.38;0.90;;;20.70;47.00;;;;;;5031889;28;20079;-45
2020/12/13 02:11:05;;;;;;;1.20;0.70;;;20.70;47.00;;;;;;5032495;28;20025;-46
2020/12/13 02:13:31;;;;;;;1.20;0.70;;;20.70;46.90;;;;;;5031898;28;20021;-46
2020/12/13 02:15:57;;;;;;;1.35;1.00;;;20.70;46.90;;;;;;5032397;28;20028;-45
2020/12/13 02:18:23;;;;;;;2.00;0.70;;;20.70;46.90;;;;;;5032102;28;20021;-55
2020/12/13 02:20:48;;;;;;;1.35;0.90;;;20.70;46.90;;;;;;5032426;28;20029;-45
2020/12/13 02:23:14;;;;;;;0.95;0.82;;;20.70;46.90;;;;;;5031148;28;20119;-45
2020/12/13 02:25:40;;;;;;;1.60;0.77;;;20.70;46.90;;;;;;5031339;28;20458;-47
2020/12/13 02:28:06;;;;;;;1.08;0.63;;;20.70;46.90;;;;;;5032222;28;20032;-46
2020/12/13 02:30:31;;;;;;;1.10;0.70;;;20.70;46.90;;;;;;5031806;28;20406;-45
2020/12/13 02:32:57;;;;;;;1.00;0.70;;;20.70;46.90;;;;;;5032582;28;20041;-46
2020/12/13 02:35:23;;;;;;;2.35;0.70;;;20.70;46.90;;;;;;5032297;28;20057;-55
2020/12/13 02:37:49;;;;;;;0.80;0.65;;;20.70;46.90;;;;;;5031609;28;20470;-48
2020/12/13 02:40:16;;;;;;;1.45;1.00;;;20.70;46.80;;;;;;5032114;28;20123;-46
2020/12/13 02:42:41;;;;;;;0.80;0.60;;;20.70;46.80;;;;;;5031490;28;20029;-45
2020/12/13 02:45:07;;;;;;;1.30;0.80;;;20.70;46.90;;;;;;5032090;28;20543;-48
2020/12/13 02:47:33;;;;;;;0.70;0.63;;;20.70;46.80;;;;;;5031239;28;20030;-45
2020/12/13 02:49:58;;;;;;;0.85;0.73;;;20.60;46.70;;;;;;5031989;28;20053;-46
2020/12/13 02:52:24;;;;;;;1.25;0.70;;;20.60;46.70;;;;;;5032008;28;20021;-56
2020/12/13 02:54:50;;;;;;;1.25;0.80;;;20.70;46.80;;;;;;5031703;28;20099;-47
2020/12/13 02:57:15;;;;;;;1.20;0.77;;;20.60;46.70;;;;;;5031938;28;20026;-46
2020/12/13 02:59:41;;;;;;;1.00;0.63;;;20.70;46.80;;;;;;5029982;28;20022;-48
2020/12/13 03:02:07;;;;;;;1.02;0.70;;;20.60;46.70;;;;;;5031687;28;20030;-45
2020/12/13 03:04:32;;;;;;;1.63;0.70;;;20.70;46.80;;;;;;5031098;28;20076;-48
2020/12/13 03:06:58;;;;;;;0.70;0.60;;;20.70;46.80;;;;;;5032087;28;20030;-45
2020/12/13 03:09:24;;;;;;;1.25;0.65;;;20.70;46.80;;;;;;5032012;28;20033;-46
2020/12/13 03:11:49;;;;;;;0.95;0.75;;;20.70;46.80;;;;;;5030948;28;20490;-45
2020/12/13 03:14:15;;;;;;;0.88;0.70;;;20.70;46.80;;;;;;5031859;28;20064;-50
2020/12/13 03:16:40;;;;;;;0.85;0.63;;;20.60;46.70;;;;;;5031141;28;20037;-45
2020/12/13 03:19:06;;;;;;;0.70;0.60;;;20.60;46.70;;;;;;5031466;28;20463;-45
2020/12/13 03:21:32;;;;;;;0.80;0.80;;;20.60;46.70;;;;;;5031138;28;20074;-47
2020/12/13 03:23:57;;;;;;;0.68;0.50;;;20.70;46.80;;;;;;5032031;28;20036;-53
2020/12/13 03:26:23;;;;;;;1.48;0.80;;;20.60;46.70;;;;;;5032137;28;20021;-45
2020/12/13 03:28:49;;;;;;;1.02;0.68;;;20.70;46.70;;;;;;5030755;28;20056;-46
2020/12/13 03:31:14;;;;;;;1.15;0.73;;;20.70;46.80;;;;;;5031758;28;20072;-45
2020/12/13 03:33:40;;;;;;;0.80;0.70;;;20.60;46.60;;;;;;5030952;28;20486;-46
2020/12/13 03:36:06;;;;;;;0.57;0.50;;;20.70;46.80;;;;;;5034023;28;20052;-46
2020/12/13 03:38:31;;;;;;;1.48;0.63;;;20.70;46.70;;;;;;5034826;28;20025;-45
2020/12/13 03:40:57;;;;;;;0.77;0.60;;;20.60;46.60;;;;;;5035732;28;20117;-45
2020/12/13 03:43:23;;;;;;;1.10;0.80;;;20.70;46.70;;;;;;5035338;28;20083;-46
2020/12/13 03:45:48;;;;;;;1.42;0.85;;;20.70;46.70;;;;;;5034661;28;20097;-45
2020/12/13 03:48:14;;;;;;;1.27;0.80;;;20.70;46.70;;;;;;5035610;28;20029;-46
2020/12/13 03:50:39;;;;;;;1.63;0.60;;;20.60;46.60;;;;;;5034715;28;20116;-45
2020/12/13 03:53:10;;;;;;;1.05;0.55;;;20.70;46.70;;;;;;5035949;28;20052;-45
2020/12/13 03:55:36;;;;;;;1.15;0.70;;;20.60;46.60;;;;;;5034644;28;20104;-45
2020/12/13 03:58:03;;;;;;;1.10;0.60;;;20.70;46.60;;;;;;5035343;28;20036;-45
2020/12/13 04:00:29;;;;;;;0.75;0.70;;;20.70;46.70;;;;;;5034772;28;20087;-55
2020/12/13 04:02:55;;;;;;;0.90;0.60;;;20.70;46.60;;;;;;5035180;28;20026;-45
2020/12/13 04:05:25;;;;;;;2.13;0.93;;;20.70;46.60;;;;;;5035059;28;20034;-45
2020/12/13 04:07:51;;;;;;;0.80;0.70;;;20.60;46.50;;;;;;5034426;28;20049;-45
2020/12/13 04:10:18;;;;;;;0.65;0.40;;;20.70;46.60;;;;;;5033771;28;20187;-45
2020/12/13 04:12:44;;;;;;;1.15;0.50;;;20.70;46.60;;;;;;5034090;28;20033;-46
2020/12/13 04:15:10;;;;;;;1.05;0.70;;;20.60;46.50;;;;;;5034781;28;20466;-45
2020/12/13 04:17:36;;;;;;;0.95;0.73;;;20.60;46.50;;;;;;5033999;28;20429;-45
2020/12/13 04:20:03;;;;;;;1.00;0.60;;;20.70;46.60;;;;;;5034529;28;20026;-45
2020/12/13 04:22:29;;;;;;;4.88;0.60;;;20.70;46.60;;;;;;5034443;28;20030;-56
2020/12/13 04:24:55;;;;;;;0.88;0.60;;;20.60;46.50;;;;;;5034807;28;20021;-45
2020/12/13 04:27:20;;;;;;;0.60;0.47;;;20.60;46.50;;;;;;5034573;28;20044;-47
2020/12/13 04:29:46;;;;;;;0.77;0.60;;;20.60;46.50;;;;;;5034079;28;20056;-47
2020/12/13 04:32:11;;;;;;;0.98;0.73;;;20.60;46.50;;;;;;5034567;28;20041;-48
2020/12/13 04:34:37;;;;;;;1.13;0.88;;;20.60;46.50;;;;;;5033672;28;20085;-45
2020/12/13 04:37:03;;;;;;;0.95;0.68;;;20.70;46.50;;;;;;5034449;28;20029;-45
2020/12/13 04:39:29;;;;;;;0.77;0.50;;;20.60;46.50;;;;;;5034193;28;20104;-55
2020/12/13 04:41:54;;;;;;;0.50;0.50;;;20.60;46.50;;;;;;5034502;28;20055;-45
2020/12/13 04:44:20;;;;;;;1.25;1.02;;;20.60;46.40;;;;;;5034482;28;20068;-45
2020/12/13 04:46:46;;;;;;;0.90;0.47;;;20.60;46.50;;;;;;5032389;28;20420;-45
2020/12/13 04:49:13;;;;;;;0.80;0.60;;;20.70;46.50;;;;;;5033880;28;20032;-45
2020/12/13 04:51:42;;;;;;;0.75;0.75;;;20.60;46.40;;;;;;5031964;28;20025;-45
2020/12/13 04:54:08;;;;;;;0.88;0.50;;;20.60;46.40;;;;;;5034128;28;20060;-45
2020/12/13 04:56:36;;;;;;;1.10;0.95;;;20.60;46.40;;;;;;5033208;28;20486;-45
2020/12/13 04:59:03;;;;;;;0.63;0.50;;;20.70;46.50;;;;;;5034188;28;20021;-45
2020/12/13 05:01:29;;;;;;;0.50;0.50;;;20.60;46.40;;;;;;5033816;28;20043;-55
2020/12/13 05:03:55;;;;;;;1.13;0.68;;;20.60;46.40;;;;;;5033494;28;20040;-45
2020/12/13 05:06:21;;;;;;;0.68;0.50;;;20.70;46.50;;;;;;5033823;28;20037;-46
2020/12/13 05:08:47;;;;;;;1.13;0.57;;;20.70;46.50;;;;;;5033361;28;20026;-45
2020/12/13 05:11:14;;;;;;;0.50;0.45;;;20.70;46.50;;;;;;5033924;28;20036;-46
2020/12/13 05:13:40;;;;;;;0.70;0.60;;;20.60;46.40;;;;;;5033325;28;20033;-47
2020/12/13 05:16:10;;;;;;;1.33;0.70;;;20.60;46.40;;;;;;5033740;28;20383;-45
2020/12/13 05:18:39;;;;;;;0.60;0.50;;;20.60;46.30;;;;;;5032857;28;20053;-46
2020/12/13 05:21:06;;;;;;;0.70;0.60;;;20.60;46.40;;;;;;5033776;28;20044;-46
2020/12/13 05:23:33;;;;;;;0.80;0.55;;;20.70;46.50;;;;;;5032034;28;20025;-55
2020/12/13 05:25:59;;;;;;;0.60;0.50;;;20.60;46.40;;;;;;5033774;28;20107;-46
2020/12/13 05:28:25;;;;;;;0.55;0.43;;;20.70;46.40;;;;;;5033432;28;20474;-47
2020/12/13 05:30:52;;;;;;;0.52;0.52;;;20.70;46.40;;;;;;5032794;28;20029;-45
2020/12/13 05:33:32;;;;;;;0.80;0.60;;;20.70;46.40;;;;;;5033452;28;20041;-45
2020/12/13 05:36:05;;;;;;;0.32;0.30;;;20.70;46.40;;;;;;5033454;28;20034;-47
2020/12/13 05:38:33;;;;;;;0.77;0.60;;;20.70;46.40;;;;;;5033263;28;20027;-55
2020/12/13 05:40:59;;;;;;;0.98;0.60;;;20.60;46.30;;;;;;5033277;28;20029;-45
2020/12/13 05:43:28;;;;;;;0.63;0.40;;;20.60;46.30;;;;;;5033311;28;20108;-46
2020/12/13 05:57:09;;;;;;;0.55;0.47;;;20.70;46.40;;;;;;5029527;28;20378;-49
2020/12/13 05:59:34;;;;;;;0.70;0.50;;;20.70;46.40;;;;;;5030680;28;20347;-47
2020/12/13 06:02:01;;;;;;;0.90;0.70;;;20.70;46.40;;;;;;5031894;28;20055;-46
2020/12/13 06:04:32;;;;;;;0.80;0.55;;;20.60;46.30;;;;;;5031800;28;20044;-47
2020/12/13 06:07:02;;;;;;;0.40;0.40;;;20.70;46.40;;;;;;5030773;28;20490;-47
2020/12/13 06:09:33;;;;;;;0.60;0.43;;;20.70;46.40;;;;;;5031721;28;20095;-47
2020/12/13 06:12:07;;;;;;;0.95;0.60;;;20.70;46.40;;;;;;5031394;28;20061;-46
2020/12/13 06:14:34;;;;;;;0.52;0.40;;;20.70;46.30;;;;;;5032111;28;20175;-58
2020/12/13 06:17:01;;;;;;;0.40;0.40;;;20.70;46.30;;;;;;5032621;28;20029;-46
2020/12/13 06:19:30;;;;;;;1.20;0.45;;;20.70;46.40;;;;;;5032862;28;20057;-47
2020/12/13 06:21:57;;;;;;;1.23;0.40;;;20.70;46.30;;;;;;5031805;28;20040;-46
2020/12/13 06:24:23;;;;;;;0.63;0.50;;;20.70;46.30;;;;;;5033118;28;20040;-47
2020/12/13 06:26:50;;;;;;;0.57;0.40;;;20.70;46.30;;;;;;5031508;28;20025;-45
2020/12/13 06:29:20;;;;;;;0.60;0.30;;;20.70;46.30;;;;;;5032653;28;20054;-45
2020/12/13 06:31:46;;;;;;;0.98;0.50;;;20.70;46.30;;;;;;5031485;28;20429;-46
2020/12/13 06:34:12;;;;;;;0.40;0.30;;;20.70;46.30;;;;;;5032142;28;20033;-46
2020/12/13 06:36:39;;;;;;;0.70;0.47;;;20.70;46.30;;;;;;5031384;28;20115;-46
2020/12/13 06:39:14;;;;;;;0.50;0.50;;;20.70;46.30;;;;;;5032539;28;20061;-46
2020/12/13 06:41:49;;;;;;;0.95;0.40;;;20.70;46.30;;;;;;5031613;28;20029;-46
2020/12/13 06:44:16;;;;;;;0.68;0.47;;;20.70;46.30;;;;;;5032812;28;20032;-46
2020/12/13 06:46:43;;;;;;;1.55;0.50;;;20.70;46.30;;;;;;5031525;28;20075;-46
2020/12/13 06:49:11;;;;;;;0.63;0.50;;;20.70;46.20;;;;;;5032077;28;20544;-46
2020/12/13 06:51:38;;;;;;;0.40;0.40;;;20.70;46.20;;;;;;5031148;28;20394;-46
2020/12/13 06:54:08;;;;;;;0.55;0.40;;;20.70;46.20;;;;;;5032078;28;20034;-45
2020/12/13 06:56:34;;;;;;;1.02;0.70;;;20.70;46.20;;;;;;5031567;28;20031;-54
2020/12/13 06:59:01;;;;;;;0.45;0.35;;;20.70;46.20;;;;;;5031757;28;20029;-45
2020/12/13 07:01:29;;;;;;;0.57;0.50;;;20.70;46.20;;;;;;5031003;28;20076;-47
2020/12/13 07:04:16;;;;;;;0.93;0.60;;;20.70;46.10;;;;;;5030786;28;20021;-45
2020/12/13 07:06:43;;;;;;;1.30;0.50;;;20.70;46.20;;;;;;5031097;28;20029;-45
2020/12/13 07:09:12;;;;;;;1.38;0.73;;;20.70;46.20;;;;;;5029766;28;20022;-47
2020/12/13 07:11:43;;;;;;;0.50;0.40;;;20.70;46.20;;;;;;5030361;28;20037;-47
2020/12/13 07:14:12;;;;;;;0.55;0.40;;;20.70;46.20;;;;;;5031516;28;20073;-46
2020/12/13 07:16:44;;;;;;;1.75;0.32;;;20.70;46.20;;;;;;5027170;28;20755;-49
2020/12/13 07:19:15;;;;;;;0.45;0.40;;;20.70;46.20;;;;;;5031312;28;20035;-46
2020/12/13 07:21:42;;;;;;;2.83;0.50;;;20.70;46.40;;;;;;5020952;28;20042;-48
2020/12/13 07:24:08;;;;;;;0.60;0.40;;;20.70;46.50;;;;;;5030994;28;20037;-47
2020/12/13 07:26:35;;;;;;;1.30;0.52;;;20.80;46.50;;;;;;5030529;28;20021;-55
2020/12/13 07:29:04;;;;;;;2.15;0.65;;;20.80;46.80;;;;;;5030080;28;20124;-45
2020/12/13 07:31:38;;;;;;;2.47;0.70;;;20.80;46.90;;;;;;5030418;28;20025;-44
2020/12/13 07:34:06;;;;;;;1.85;0.40;;;20.80;47.10;;;;;;5030454;28;20056;-45
2020/12/13 07:36:32;;;;;;;7.38;2.03;;;20.80;47.10;;;;;;5030130;28;20025;-44
2020/12/13 07:39:02;;;;;;;7.80;2.45;;;20.80;49.30;;;;;;5029230;28;20029;-49
2020/12/13 07:41:28;;;;;;;4.75;1.92;;;20.90;50.00;;;;;;5029782;28;20065;-48
2020/12/13 07:44:01;;;;;;;7.63;3.15;;;20.90;50.50;;;;;;5029428;28;20489;-49
2020/12/13 07:46:29;;;;;;;5.53;2.38;;;20.90;51.10;;;;;;5027816;28;20032;-46
2020/12/13 07:49:07;;;;;;;8.23;2.58;;;20.90;51.50;;;;;;5029508;28;20537;-46
2020/12/13 07:51:34;;;;;;;5.28;2.03;;;20.90;52.00;;;;;;5028089;28;20037;-55
2020/12/13 07:54:13;;;;;;;4.05;1.88;;;20.90;52.20;;;;;;5030702;28;20018;-49
2020/12/13 07:56:40;;;;;;;6.00;1.90;;;20.90;52.70;;;;;;5029924;28;20049;-56
2020/12/13 07:59:14;;;;;;;2.53;1.73;;;20.90;52.30;;;;;;5026636;28;20769;-45
2020/12/13 08:01:41;;;;;;;4.78;1.33;;;20.90;52.20;;;;;;5029831;28;20046;-46
2020/12/13 08:04:07;;;;;;;7.68;2.42;;;20.90;52.10;;;;;;5030561;28;20037;-47
2020/12/13 08:06:33;;;;;;;9.35;1.80;;;20.90;52.10;;;;;;5031190;28;20038;-45
2020/12/13 08:08:58;;;;;;;7.55;1.90;;;20.90;52.20;;;;;;5030770;28;20103;-44
2020/12/13 08:11:24;;;;;;;6.10;1.67;;;20.90;51.90;;;;;;5031132;28;20034;-45
2020/12/13 08:13:55;;;;;;;6.10;1.13;;;20.90;51.80;;;;;;5030514;28;20026;-45
2020/12/13 08:16:24;;;;;;;7.75;1.15;;;20.90;51.50;;;;;;5031110;28;20072;-45
2020/12/13 08:18:55;;;;;;;7.20;1.30;;;20.90;51.30;;;;;;5030649;28;20345;-46
2020/12/13 08:21:32;;;;;;;3.53;0.90;;;20.90;51.50;;;;;;5032305;28;20057;-46
2020/12/13 08:24:02;;;;;;;2.55;1.20;;;20.90;51.50;;;;;;5034019;28;20417;-49
2020/12/13 08:26:28;;;;;;;5.32;0.93;;;20.90;51.50;;;;;;5031493;28;20104;-45
2020/12/13 08:28:57;;;;;;;8.77;1.10;;;21.00;51.70;;;;;;5032957;28;20046;-45
2020/12/13 08:31:28;;;;;;;6.18;1.10;;;21.00;51.50;;;;;;5034615;28;20042;-47
2020/12/13 08:34:05;;;;;;;2.50;1.50;;;21.00;51.30;;;;;;5034199;28;20030;-45
2020/12/13 08:36:31;;;;;;;7.47;1.10;;;21.00;51.30;;;;;;5034755;28;20264;-43
2020/12/13 08:39:10;;;;;;;8.20;1.00;;;21.00;51.60;;;;;;5032059;28;20205;-44
2020/12/13 08:41:46;;;;;;;5.03;0.90;;;21.10;51.20;;;;;;5034756;28;20034;-54
2020/12/13 08:44:34;;;;;;;4.75;0.90;;;21.00;51.20;;;;;;5034948;28;20032;-47
2020/12/13 08:47:06;;;;;;;7.80;0.90;;;21.00;51.10;;;;;;5031528;28;20065;-45
2020/12/13 08:49:38;;;;;;;6.38;1.17;;;21.10;51.20;;;;;;5034488;28;20100;-44
2020/12/13 08:52:18;;;;;;;13.48;1.35;;;21.20;50.90;;;;;;5033384;28;20128;-44
2020/12/13 08:54:52;;;;;;;6.53;1.35;;;21.30;50.90;;;;;;5031855;28;20021;-45
2020/12/13 08:57:31;;;;;;;12.60;1.10;;;21.30;50.50;;;;;;5032037;28;20044;-44
2020/12/13 09:00:01;;;;;;;7.55;1.00;;;21.20;50.50;;;;;;5033035;28;20121;-44
2020/12/13 09:02:27;;;;;;;5.00;0.90;;;21.20;50.60;;;;;;5034032;28;20072;-43
2020/12/13 09:04:58;;;;;;;8.52;2.70;;;21.20;50.60;;;;;;5032737;28;20030;-45
2020/12/13 09:07:31;;;;;;;6.18;1.00;;;21.10;50.50;;;;;;5032629;28;20486;-43
2020/12/13 09:10:12;;;;;;;8.00;0.95;;;21.20;50.50;;;;;;5026404;28;20254;-43
2020/12/13 09:12:40;;;;;;;4.53;0.85;;;21.20;50.50;;;;;;5031707;28;20091;-57
2020/12/13 09:15:17;;;;;;;7.57;1.10;;;21.20;50.40;;;;;;5032030;28;20028;-43
2020/12/13 09:18:10;;;;;;;9.70;1.75;;;21.20;50.30;;;;;;5030752;28;20018;-44
2020/12/13 09:20:37;;;;;;;3.00;0.63;;;21.30;50.30;;;;;;5031311;28;20370;-55
2020/12/13 09:23:02;;;;;;;6.82;0.98;;;21.30;50.20;;;;;;5031367;28;20083;-42
2020/12/13 09:25:28;;;;;;;4.97;0.98;;;21.30;50.30;;;;;;5031154;28;20460;-50
2020/12/13 09:28:03;;;;;;;2.65;0.80;;;21.40;50.10;;;;;;5031278;28;20027;-43
2020/12/13 09:30:29;;;;;;;4.22;0.85;;;21.40;50.10;;;;;;5031433;28;20047;-42
2020/12/13 09:32:55;;;;;;;5.60;1.15;;;21.40;50.20;;;;;;5031690;28;20029;-44
2020/12/13 09:35:21;;;;;;;7.57;1.58;;;21.40;50.10;;;;;;5032895;28;20037;-45
2020/12/13 09:37:47;;;;;;;4.28;1.00;;;21.40;50.10;;;;;;5032129;28;20032;-50
2020/12/13 09:40:12;;;;;;;3.25;0.82;;;21.40;50.00;;;;;;5031620;28;20140;-43
2020/12/13 09:42:38;;;;;;;6.20;1.70;;;21.30;50.00;;;;;;5032126;28;20471;-55
2020/12/13 09:45:05;;;;;;;2.78;0.65;;;21.30;50.00;;;;;;5032141;28;20348;-44
2020/12/13 09:47:31;;;;;;;4.65;0.80;;;21.30;49.90;;;;;;5032407;28;20025;-46
2020/12/13 09:49:59;;;;;;;4.00;0.80;;;21.40;49.90;;;;;;5031480;28;20899;-42
2020/12/13 09:52:27;;;;;;;5.40;1.35;;;21.40;49.80;;;;;;5033000;28;20074;-44
2020/12/13 09:54:53;;;;;;;3.75;0.80;;;21.40;49.80;;;;;;5029988;28;20445;-55
2020/12/13 09:57:19;;;;;;;3.67;0.60;;;21.30;49.70;;;;;;5031156;28;20048;-48
2020/12/13 09:59:45;;;;;;;3.63;0.70;;;21.40;49.70;;;;;;5046922;28;20490;-48
2020/12/13 10:02:10;;;;;;;2.70;0.82;;;21.40;49.70;;;;;;5032268;28;20025;-45
2020/12/13 10:04:36;;;;;;;2.42;0.70;;;21.40;49.80;;;;;;5032425;28;20502;-46
2020/12/13 10:09:30;;;;;;;1.52;0.57;;;21.40;49.90;;;;;;5032355;28;20040;-46
2020/12/13 10:11:56;;;;;;;7.90;1.10;;;21.40;49.70;;;;;;5031161;28;20360;-46
2020/12/13 10:14:22;;;;;;;1.95;0.60;;;21.30;49.50;;;;;;5031888;28;20025;-45
2020/12/13 10:16:47;;;;;;;2.60;0.77;;;21.40;49.50;;;;;;5030160;28;20378;-44
2020/12/13 10:19:13;;;;;;;2.10;0.90;;;21.40;49.50;;;;;;5031973;28;20022;-45
2020/12/13 10:21:39;;;;;;;4.28;1.00;;;21.40;49.50;;;;;;5030706;28;20083;-56
2020/12/13 10:24:06;;;;;;;3.60;0.70;;;21.40;49.40;;;;;;5030264;28;20048;-58
2020/12/13 10:26:36;;;;;;;3.65;0.77;;;21.40;49.40;;;;;;5029500;28;20433;-45
2020/12/13 10:29:02;;;;;;;4.78;0.75;;;21.40;49.40;;;;;;5030777;28;20776;-52
2020/12/13 10:31:30;;;;;;;1.55;0.75;;;21.40;49.30;;;;;;5031717;28;20382;-46
2020/12/13 10:33:57;;;;;;;1.33;0.85;;;21.40;49.30;;;;;;5029123;28;20035;-47
2020/12/13 10:36:23;;;;;;;5.38;0.80;;;21.40;49.20;;;;;;5031085;28;20071;-49
2020/12/13 10:38:51;;;;;;;3.08;0.50;;;21.40;49.20;;;;;;5031073;28;20030;-44
2020/12/13 10:41:18;;;;;;;2.70;0.50;;;21.40;49.30;;;;;;5031229;28;20039;-49
2020/12/13 10:43:44;;;;;;;7.38;1.00;;;21.40;49.30;;;;;;5030882;28;20025;-45
2020/12/13 10:46:09;;;;;;;4.45;0.60;;;21.40;49.30;;;;;;5030557;28;20374;-47
2020/12/13 10:48:35;;;;;;;2.72;0.60;;;21.40;49.20;;;;;;5031916;28;20507;-46
2020/12/13 10:51:01;;;;;;;3.85;0.70;;;21.40;49.30;;;;;;5029859;28;20604;-45
2020/12/13 10:53:27;;;;;;;1.90;0.47;;;21.40;49.10;;;;;;5030212;28;20029;-46
2020/12/13 10:55:53;;;;;;;2.33;0.70;;;21.40;49.00;;;;;;5023844;28;20056;-45
2020/12/13 10:58:19;;;;;;;5.32;0.70;;;21.40;48.90;;;;;;5023485;28;20471;-45
2020/12/13 11:00:45;;;;;;;1.15;0.50;;;21.40;49.70;;;;;;5029846;28;20475;-45
2020/12/13 11:03:11;;;;;;;2.15;0.60;;;21.40;49.10;;;;;;5029836;28;20060;-45
2020/12/13 11:05:37;;;;;;;6.00;1.10;;;21.40;49.00;;;;;;5031175;28;20064;-45
2020/12/13 11:08:03;;;;;;;1.83;0.57;;;21.40;48.90;;;;;;5030131;28;20101;-45
2020/12/13 11:10:28;;;;;;;2.38;0.68;;;21.40;48.80;;;;;;5031278;28;20021;-44
2020/12/13 11:12:54;;;;;;;4.53;0.60;;;21.40;48.70;;;;;;5030531;28;20379;-45
2020/12/13 11:15:20;;;;;;;2.78;0.60;;;21.50;48.80;;;;;;5030810;28;20064;-44
2020/12/13 11:17:46;;;;;;;2.33;0.50;;;21.50;48.70;;;;;;5045661;28;20017;-44
2020/12/13 11:20:12;;;;;;;1.25;0.70;;;21.50;48.50;;;;;;5031073;28;20067;-45
2020/12/13 11:22:37;;;;;;;1.92;0.60;;;21.50;48.50;;;;;;5031329;28;20374;-45
2020/12/13 11:25:04;;;;;;;1.65;0.50;;;21.50;48.50;;;;;;5027750;28;20730;-58
2020/12/13 11:27:30;;;;;;;2.90;0.82;;;21.50;48.40;;;;;;5030469;28;21250;-45
2020/12/13 11:29:56;;;;;;;1.75;0.38;;;21.50;48.50;;;;;;5029964;28;20049;-45
2020/12/13 11:32:25;;;;;;;2.13;0.50;;;21.50;48.50;;;;;;5030769;28;20041;-44
2020/12/13 11:34:50;;;;;;;0.98;0.60;;;21.50;48.60;;;;;;5045757;28;20053;-44
2020/12/13 11:37:16;;;;;;;3.72;0.80;;;21.50;48.60;;;;;;5030866;28;20022;-44
2020/12/13 11:39:42;;;;;;;3.70;0.60;;;21.50;48.50;;;;;;5030893;28;20402;-57
2020/12/13 11:42:09;;;;;;;3.50;0.70;;;21.50;48.50;;;;;;5030976;28;20026;-46
2020/12/13 11:44:34;;;;;;;4.10;0.82;;;21.40;48.40;;;;;;5029681;28;20032;-45
2020/12/13 11:47:00;;;;;;;6.03;0.60;;;21.40;48.40;;;;;;5029008;28;20128;-45
2020/12/13 11:49:26;;;;;;;6.18;0.63;;;21.40;48.30;;;;;;5030805;28;20018;-49
2020/12/13 11:51:51;;;;;;;1.92;0.60;;;21.40;48.30;;;;;;5029961;28;20129;-46
2020/12/13 11:54:17;;;;;;;2.42;0.57;;;21.40;48.30;;;;;;5029788;28;20438;-59
2020/12/13 11:56:43;;;;;;;2.15;0.50;;;21.40;48.30;;;;;;5030657;28;20021;-58
2020/12/13 11:59:09;;;;;;;1.08;0.50;;;21.40;48.10;;;;;;5034581;28;20022;-45
2020/12/13 12:01:35;;;;;;;1.40;0.60;;;21.50;48.30;;;;;;5033534;28;20018;-44
2020/12/13 12:04:02;;;;;;;3.13;0.60;;;21.50;48.10;;;;;;5033083;28;20164;-44
2020/12/13 12:06:28;;;;;;;3.25;0.95;;;21.50;48.40;;;;;;5034458;28;20057;-45
2020/12/13 12:08:55;;;;;;;0.98;0.55;;;21.50;48.40;;;;;;5033235;28;20108;-53
2020/12/13 12:11:22;;;;;;;2.83;0.63;;;21.60;48.30;;;;;;5034927;28;20061;-46
2020/12/13 12:13:48;;;;;;;1.45;0.70;;;21.60;48.40;;;;;;5034067;28;20086;-46
2020/12/13 12:16:15;;;;;;;3.95;0.57;;;21.60;48.40;;;;;;5034749;28;20026;-46
2020/12/13 12:18:41;;;;;;;1.08;0.60;;;21.60;48.50;;;;;;5035050;28;20033;-47
2020/12/13 12:21:13;;;;;;;2.03;0.85;;;21.60;48.60;;;;;;5034350;28;20052;-47
2020/12/13 12:23:41;;;;;;;6.07;0.70;;;21.60;48.50;;;;;;5035048;28;20072;-44
2020/12/13 12:26:07;;;;;;;1.38;0.47;;;21.60;48.30;;;;;;5031461;28;20075;-45
2020/12/13 12:28:33;;;;;;;2.38;0.60;;;21.50;48.00;;;;;;5034523;28;20041;-43
2020/12/13 12:30:59;;;;;;;1.52;0.70;;;21.50;47.80;;;;;;5023135;28;20087;-45
2020/12/13 12:33:25;;;;;;;3.00;0.65;;;21.60;48.10;;;;;;5033444;28;20487;-44
2020/12/13 12:35:51;;;;;;;1.55;0.60;;;21.50;47.60;;;;;;5033692;28;20044;-46
2020/12/13 12:38:17;;;;;;;0.60;0.35;;;21.50;47.60;;;;;;5034389;28;20036;-47
2020/12/13 12:40:43;;;;;;;1.35;0.47;;;21.50;47.70;;;;;;5034793;28;20030;-55
2020/12/13 12:43:08;;;;;;;1.15;0.43;;;21.60;48.10;;;;;;5033771;28;20022;-46
2020/12/13 12:45:34;;;;;;;0.95;0.55;;;21.60;47.80;;;;;;5031718;28;20378;-49
2020/12/13 12:48:01;;;;;;;2.05;0.80;;;21.60;47.80;;;;;;5032614;28;20021;-45
2020/12/13 12:50:26;;;;;;;2.90;0.68;;;21.60;47.60;;;;;;5034052;28;20022;-50
2020/12/13 12:52:53;;;;;;;2.53;0.50;;;21.50;48.10;;;;;;5032433;28;20501;-46
2020/12/13 12:55:20;;;;;;;2.00;0.52;;;21.50;47.70;;;;;;5030431;28;20356;-44
2020/12/13 12:57:48;;;;;;;1.27;0.60;;;21.50;47.70;;;;;;5033394;28;20080;-59
2020/12/13 13:02:40;;;;;;;1.23;0.50;;;21.60;47.70;;;;;;5032699;28;20032;-44
2020/12/13 13:05:11;;;;;;;1.38;0.50;;;21.60;47.70;;;;;;5033207;28;20025;-45